Lady Lara — ZGEZ3 — position and weather

sailwx.info

Track history (hours):
 
Tides and Currents Weather Stations Pressure Air Temp Water Temp Dewpoint Dewpoint Depression Visibility Wind Speed Wind Dir Waves Ship Positions

Lady Lara

Last reported at 2017-Dec-09 18:15 UTC. Time now 2017-Dec-12 02:50 UTC.
Position N 35°14' W 013°31'.

Length 91 m; draft 4 m.

Type: Pleasure craft. MMSI: 319082300.

Date/timePositionNaut miles runAvg speedWind from/ knotsBaromVisibWave heightAir tempDewpointWater temp
2017-Dec-09 18:15N 35°14' W 013°31'313.3
2017-Dec-09 18:00N 35°15' W 013°28'713.6
2017-Dec-09 17:31N 35°15' W 013°19'  
2017-Dec-07 07:51N 37°20' W 000°52'514.1
2017-Dec-07 07:30N 37°24' W 000°48'713.9
2017-Dec-07 07:00N 37°28' W 000°41'713.9
2017-Dec-07 06:30N 37°33' W 000°35'713.6
2017-Dec-07 06:00N 37°38' W 000°30'713.5
2017-Dec-07 05:30N 37°44' W 000°25'1813.5
2017-Dec-07 04:09N 37°60' W 000°13'213.4
2017-Dec-07 04:00N 38°01' W 000°12'  
Track history (hours):
 
Tides and Currents Weather Stations Pressure Air Temp Water Temp Dewpoint Dewpoint Depression Visibility Wind Speed Wind Dir Waves Ship Positions

Lady Lara

Last reported at 2017-Dec-09 18:15 UTC. Time now 2017-Dec-12 02:50 UTC.
Position N 35°14' W 013°31'.

Length 91 m; draft 4 m.

Type: Pleasure craft. MMSI: 319082300.

Date/timePositionNaut miles runAvg speedWind from/ knotsBaromVisibWave heightAir tempDewpointWater temp
2017-Dec-09 18:15N 35°14' W 013°31'313.3
2017-Dec-09 18:00N 35°15' W 013°28'713.6
2017-Dec-09 17:31N 35°15' W 013°19'  
2017-Dec-07 07:51N 37°20' W 000°52'514.1
2017-Dec-07 07:30N 37°24' W 000°48'713.9
2017-Dec-07 07:00N 37°28' W 000°41'713.9
2017-Dec-07 06:30N 37°33' W 000°35'713.6
2017-Dec-07 06:00N 37°38' W 000°30'713.5
2017-Dec-07 05:30N 37°44' W 000°25'1813.5
2017-Dec-07 04:09N 37°60' W 000°13'213.4
2017-Dec-07 04:00N 38°01' W 000°12'  

Dump ship's entire track history